| Date | Time | Temp. (oF) | Dew Point (oF) | Rel. Hum. (%) | Press. (in.) | Wind Dir. | Wind Speed (mph) | Hourly Rainfall (in.) |
|
|---|---|---|---|---|---|---|---|---|---|
| 1 | 10/08 | 00:00 | 54 | 41 | 63 | 30.16 | NW | 3 | 0.00 |
| 2 | 10/07 | 23:00 | 55 | 42 | 63 | 30.15 | NNW | 3 | 0.00 |
| 3 | 10/07 | 22:00 | 56 | 43 | 62 | 30.13 | WNW | 1 | 0.00 |
| 4 | 10/07 | 21:00 | 56 | 44 | 66 | 30.11 | WNW | 2 | 0.00 |
| 5 | 10/07 | 20:00 | 59 | 43 | 57 | 30.09 | W | 1 | 0.00 |
| 6 | 10/07 | 19:00 | 62 | 43 | 51 | 30.08 | WNW | 3 | 0.00 |
| 7 | 10/07 | 18:00 | 65 | 41 | 43 | 30.04 | W | 11 | 0.00 |
| 8 | 10/07 | 17:00 | 67 | 45 | 46 | 30.03 | NW | 10 | 0.00 |
| 9 | 10/07 | 16:00 | 70 | 51 | 52 | 30.00 | NNW | 5 | 0.00 |
| 10 | 10/07 | 15:00 | 70 | 52 | 55 | 30.00 | NNW | 6 | 0.00 |
| 11 | 10/07 | 14:00 | 72 | 54 | 55 | 29.98 | WNW | 7 | 0.00 |
| 12 | 10/07 | 13:00 | 74 | 55 | 52 | 29.98 | W | 3 | 0.00 |
| 13 | 10/07 | 12:00 | 73 | 57 | 59 | 29.99 | WNW | 5 | 0.00 |
| 14 | 10/07 | 11:00 | 72 | 61 | 70 | 30.00 | WSW | 11 | 0.00 |
| 15 | 10/07 | 10:00 | 69 | 62 | 80 | 30.00 | W | 9 | 0.00 |
| 16 | 10/07 | 09:00 | 66 | 62 | 90 | 30.00 | S | 4 | 0.00 |
| 17 | 10/07 | 08:00 | 64 | 62 | 94 | 30.00 | SSE | 1 | 0.00 |
| 18 | 10/07 | 07:00 | 64 | 62 | 95 | 29.99 | WSW | 1 | 0.00 |
| 19 | 10/07 | 06:00 | 64 | 62 | 95 | 29.99 | S | 3 | 0.00 |
| 20 | 10/07 | 05:00 | 63 | 60 | 93 | 30.01 | S | 4 | 0.00 |
| 21 | 10/07 | 04:00 | 63 | 60 | 91 | 30.02 | SSE | 7 | 0.00 |
| 22 | 10/07 | 03:00 | 62 | 59 | 91 | 30.04 | SSE | 7 | 0.00 |
| 23 | 10/07 | 02:00 | 62 | 58 | 89 | 30.07 | SE | 2 | 0.00 |
| 24 | 10/07 | 01:00 | 62 | 58 | 87 | 30.08 | ESE | 3 | 0.00 |